Sturdies Bay, Canada
Current Conditions -  °F | °C
As of 1:00 AM on Wednesday 26 Nov 2014 (Local Time) from CYYJ Reporting Station
Light Rain Light Rain  
Wind Chill: 43°   Ceiling: 500
Heat Index: 43°   Visibility: 1.2mi
Dew Point: 43°   Wind: 3mph
Humidity: 100%   Direction: 320°NW
Pressure: 30.12"   Gusts: NA
Location:  48.88°N, 123.32°W
Report Text: CYYJ 260900Z 32003KT 1 1/4SM -RA BR FEW003 BKN005 BKN008 OVC011 06/06 A3012 RMK SF2SF3SC2SC1 SLP201
Loading
Personal Weather Stations






























Interactive Weather Map New forecast layout! Learn more

10-Day Weather Forecast

Advertisements
Track Severe Weather on mobile